Time;durP1;ratioP1;P1;durP2;ratioP2;P2;SDS_P1;SDS_P2;PMS_P1;PMS_P2;Temp;Humidity;BMP_temperature;BMP_pressure;BME280_temperature;BME280_humidity;BME280_pressure;Samples;Min_cycle;Max_cycle;Signal;HPM_P1;HPM_P2
2023/10/26 00:00:34;;;;;;;;;20.25;20.25;;;;;10.86;100.00;99646.16;4955834;28;10317;-68
2023/10/26 00:03:00;;;;;;;;;19.75;15.75;;;;;10.84;100.00;99651.75;4972968;28;10353;-68
2023/10/26 00:05:27;;;;;;;;;15.75;15.75;;;;;10.84;100.00;99659.03;4972867;28;10417;-68
2023/10/26 00:07:53;;;;;;;;;19.75;15.75;;;;;10.85;100.00;99660.66;4972777;28;10257;-68
2023/10/26 00:10:20;;;;;;;;;18.00;15.50;;;;;10.85;100.00;99666.03;4973168;28;10325;-68
2023/10/26 00:12:46;;;;;;;;;17.00;17.00;;;;;10.83;100.00;99663.59;4972774;28;10800;-68
2023/10/26 00:15:13;;;;;;;;;16.75;16.00;;;;;10.83;100.00;99660.91;4972897;28;10436;-68
2023/10/26 00:17:39;;;;;;;;;18.25;17.25;;;;;10.82;100.00;99666.50;4972411;28;10363;-68
2023/10/26 00:20:07;;;;;;;;;17.00;15.75;;;;;10.81;100.00;99673.75;4971387;28;10507;-68
2023/10/26 00:22:33;;;;;;;;;16.50;15.00;;;;;10.80;100.00;99671.28;4972660;28;10473;-68
2023/10/26 00:25:00;;;;;;;;;14.25;12.50;;;;;10.82;100.00;99677.28;4972692;28;10481;-68
2023/10/26 00:27:26;;;;;;;;;16.00;14.00;;;;;10.80;100.00;99665.91;4973256;28;10397;-68
2023/10/26 00:29:53;;;;;;;;;14.25;12.75;;;;;10.81;100.00;99662.16;4957010;28;10308;-68
2023/10/26 00:32:19;;;;;;;;;13.00;12.50;;;;;10.84;100.00;99670.59;4972469;28;10550;-68
2023/10/26 00:34:46;;;;;;;;;19.50;17.00;;;;;10.81;100.00;99675.63;4974328;28;10207;-68
2023/10/26 00:37:12;;;;;;;;;20.75;17.25;;;;;10.81;100.00;99668.34;4973219;28;10316;-68
2023/10/26 00:39:39;;;;;;;;;17.00;15.25;;;;;10.83;100.00;99678.91;4956330;28;10503;-69
2023/10/26 00:42:05;;;;;;;;;15.00;14.75;;;;;10.83;100.00;99671.66;4972666;28;10173;-68
2023/10/26 00:44:32;;;;;;;;;18.00;17.50;;;;;10.84;100.00;99672.47;4971320;28;10781;-68
2023/10/26 00:47:00;;;;;;;;;20.50;16.75;;;;;10.85;100.00;99682.19;4972194;28;10327;-68
2023/10/26 00:49:26;;;;;;;;;16.25;15.50;;;;;10.84;100.00;99676.00;4972476;28;10308;-68
2023/10/26 00:52:00;;;;;;;;;15.25;14.25;;;;;10.83;100.00;99678.91;4972418;28;10470;-68
2023/10/26 00:54:28;;;;;;;;;15.25;13.75;;;;;10.84;100.00;99677.88;4972139;28;10553;-68
2023/10/26 00:56:57;;;;;;;;;18.25;17.00;;;;;10.85;100.00;99677.63;4970637;28;10454;-68
2023/10/26 00:59:27;;;;;;;;;16.50;15.00;;;;;10.85;100.00;99674.13;4972432;28;10459;-68
2023/10/26 01:01:55;;;;;;;;;15.75;14.25;;;;;10.85;100.00;99683.00;4970963;28;10306;-68
2023/10/26 01:04:22;;;;;;;;;14.25;14.00;;;;;10.85;100.00;99682.19;4954476;28;10423;-68
2023/10/26 01:06:48;;;;;;;;;18.75;17.75;;;;;10.84;100.00;99686.75;4954384;28;10243;-68
2023/10/26 01:09:15;;;;;;;;;22.25;18.75;;;;;10.84;100.00;99684.06;4970443;28;10382;-68
2023/10/26 01:11:42;;;;;;;;;18.75;18.25;;;;;10.84;100.00;99694.84;4970795;28;10426;-68
2023/10/26 01:14:10;;;;;;;;;21.00;18.25;;;;;10.86;100.00;99697.31;4954575;28;10471;-68
2023/10/26 01:16:37;;;;;;;;;15.00;14.50;;;;;10.86;100.00;99697.31;4971439;28;10467;-67
2023/10/26 01:19:04;;;;;;;;;19.50;17.50;;;;;10.85;100.00;99696.47;4954466;28;10354;-67
2023/10/26 01:21:47;;;;;;;;;17.00;15.50;;;;;10.86;100.00;99695.44;4971496;28;10220;-68
2023/10/26 01:24:13;;;;;;;;;20.50;18.50;;;;;10.85;100.00;99707.25;4971508;28;10397;-67
2023/10/26 01:26:40;;;;;;;;;17.00;17.00;;;;;10.85;100.00;99704.53;4971386;28;10543;-68
2023/10/26 01:29:06;;;;;;;;;20.00;18.75;;;;;10.86;100.00;99708.91;4971430;28;10314;-67
2023/10/26 01:31:33;;;;;;;;;23.75;18.75;;;;;10.87;100.00;99710.53;4971672;28;10252;-67
2023/10/26 01:33:59;;;;;;;;;17.75;17.25;;;;;10.87;100.00;99702.47;4971202;28;10369;-67
2023/10/26 01:36:26;;;;;;;;;20.75;16.25;;;;;10.89;100.00;99707.63;4953601;28;10331;-68
2023/10/26 01:38:55;;;;;;;;;18.25;17.75;;;;;10.91;100.00;99705.53;4970121;28;10558;-68
2023/10/26 01:41:22;;;;;;;;;17.75;16.00;;;;;10.92;100.00;99703.66;4954129;28;10582;-68
2023/10/26 01:43:49;;;;;;;;;22.25;17.50;;;;;10.92;100.00;99709.06;4971203;28;10480;-67
2023/10/26 01:46:15;;;;;;;;;18.00;18.00;;;;;10.92;100.00;99698.28;4970860;28;11118;-68
2023/10/26 01:48:41;;;;;;;;;19.50;18.50;;;;;10.93;100.00;99703.44;4953597;28;10415;-68
2023/10/26 01:51:08;;;;;;;;;20.25;19.75;;;;;10.92;100.00;99698.28;4953825;28;10519;-68
2023/10/26 01:53:35;;;;;;;;;18.50;17.25;;;;;10.90;100.00;99698.53;4970544;28;10506;-68
2023/10/26 01:56:01;;;;;;;;;26.75;22.00;;;;;10.91;100.00;99699.34;4953158;28;10487;-68
2023/10/26 01:58:28;;;;;;;;;22.75;21.75;;;;;10.87;100.00;99697.09;4953544;28;10431;-68
2023/10/26 02:00:54;;;;;;;;;22.50;19.50;;;;;10.86;100.00;99692.75;4970791;28;10559;-68
2023/10/26 02:03:21;;;;;;;;;29.00;25.75;;;;;10.86;100.00;99689.25;4969634;28;10508;-68
2023/10/26 02:05:48;;;;;;;;;21.00;20.00;;;;;10.85;100.00;99688.41;4953771;28;10674;-68
2023/10/26 02:08:15;;;;;;;;;25.00;20.75;;;;;10.84;100.00;99684.06;4969178;28;10583;-68
2023/10/26 02:10:43;;;;;;;;;21.00;21.00;;;;;10.85;100.00;99683.00;4937973;28;10499;-68
2023/10/26 02:13:10;;;;;;;;;22.25;20.00;;;;;10.84;100.00;99684.06;4970741;28;10525;-68
2023/10/26 02:15:36;;;;;;;;;20.00;19.50;;;;;10.83;100.00;99687.00;4953230;28;10495;-69
2023/10/26 02:18:03;;;;;;;;;27.00;23.50;;;;;10.82;99.90;99680.78;4952978;28;10491;-68
2023/10/26 02:20:30;;;;;;;;;25.50;20.75;;;;;10.79;99.87;99681.22;4953266;28;10509;-68
2023/10/26 02:22:58;;;;;;;;;24.00;23.00;;;;;10.75;99.83;99677.34;4953572;28;10636;-68
2023/10/26 02:25:26;;;;;;;;;27.50;24.00;;;;;10.74;99.94;99680.28;4953300;28;10715;-68
2023/10/26 02:27:52;;;;;;;;;24.00;21.25;;;;;10.71;100.00;99676.16;4968955;28;10589;-68
2023/10/26 02:30:19;;;;;;;;;22.75;21.50;;;;;10.69;99.89;99680.09;4953103;28;10435;-68
2023/10/26 02:32:45;;;;;;;;;20.25;16.50;;;;;10.64;99.68;99676.19;4953009;28;10722;-68
2023/10/26 02:35:12;;;;;;;;;23.25;21.50;;;;;10.62;99.92;99677.50;4970533;28;10607;-68
2023/10/26 02:37:38;;;;;;;;;21.00;18.75;;;;;10.60;100.00;99669.63;4969072;28;10649;-67
2023/10/26 02:40:06;;;;;;;;;24.00;21.75;;;;;10.57;99.82;99670.09;4970647;28;11369;-68
2023/10/26 02:42:33;;;;;;;;;28.50;23.75;;;;;10.54;99.71;99675.09;4953245;28;10732;-68
2023/10/26 02:44:59;;;;;;;;;24.75;21.75;;;;;10.51;100.00;99664.75;4953030;28;10818;-68
2023/10/26 02:47:27;;;;;;;;;23.00;20.50;;;;;10.47;100.00;99672.47;4970184;28;10561;-66
2023/10/26 02:49:54;;;;;;;;;19.75;18.25;;;;;10.45;100.00;99679.09;4953571;28;10741;-67
2023/10/26 02:52:21;;;;;;;;;20.50;20.50;;;;;10.42;99.69;99687.63;4953308;28;10657;-69
2023/10/26 02:54:47;;;;;;;;;22.00;18.75;;;;;10.39;99.76;99686.19;4969276;28;10693;-69
2023/10/26 02:57:15;;;;;;;;;25.00;22.25;;;;;10.36;99.73;99681.25;4952701;28;10800;-69
2023/10/26 02:59:41;;;;;;;;;26.00;23.25;;;;;10.34;100.00;99688.72;4970474;28;11580;-69
2023/10/26 03:02:08;;;;;;;;;19.00;17.25;;;;;10.32;100.00;99688.94;4970443;28;10755;-69
2023/10/26 03:04:34;;;;;;;;;28.00;23.75;;;;;10.30;99.73;99691.03;4953134;28;10728;-70
2023/10/26 03:07:01;;;;;;;;;29.00;24.00;;;;;10.29;100.00;99684.03;4973356;28;10889;-70
2023/10/26 03:09:28;;;;;;;;;23.25;18.75;;;;;10.29;99.95;99677.78;4972710;28;10861;-69
2023/10/26 03:11:55;;;;;;;;;23.00;22.50;;;;;10.29;100.00;99675.94;4972796;28;10634;-69
2023/10/26 03:14:21;;;;;;;;;25.50;20.25;;;;;10.29;100.00;99667.03;4974020;28;10804;-70
2023/10/26 03:16:48;;;;;;;;;20.00;20.00;;;;;10.28;100.00;99666.22;4956367;28;10897;-69
2023/10/26 03:19:15;;;;;;;;;20.00;19.50;;;;;10.29;100.00;99656.28;4972700;28;10814;-70
2023/10/26 03:21:41;;;;;;;;;25.75;22.50;;;;;10.28;99.93;99663.53;4956696;28;10721;-70
2023/10/26 03:24:08;;;;;;;;;27.50;23.75;;;;;10.29;100.00;99654.44;4974371;28;10732;-70
2023/10/26 03:26:34;;;;;;;;;20.25;17.50;;;;;10.28;99.76;99650.06;4974248;28;11423;-70
2023/10/26 03:29:01;;;;;;;;;27.50;23.75;;;;;10.28;99.97;99655.44;4956835;28;10868;-70
2023/10/26 03:31:28;;;;;;;;;26.75;26.25;;;;;10.29;99.64;99651.75;4974031;28;10823;-71
2023/10/26 03:33:55;;;;;;;;;26.25;23.50;;;;;10.29;99.62;99656.28;4973862;28;11503;-70
2023/10/26 03:36:22;;;;;;;;;33.75;25.25;;;;;10.25;99.84;99641.63;4956265;28;10839;-70
2023/10/26 03:38:50;;;;;;;;;22.75;22.50;;;;;10.21;99.44;99638.56;4972061;28;11046;-70
2023/10/26 03:41:18;;;;;;;;;30.50;25.50;;;;;10.22;99.47;99634.00;4940153;28;10704;-70
2023/10/26 03:43:46;;;;;;;;;25.50;18.50;;;;;10.21;99.51;99641.25;4973783;28;10746;-69
2023/10/26 03:46:14;;;;;;;;;19.50;19.25;;;;;10.19;99.67;99637.94;4973097;28;11325;-70
2023/10/26 03:48:41;;;;;;;;;22.25;20.75;;;;;10.18;99.47;99641.66;4955965;28;10907;-70
2023/10/26 03:51:07;;;;;;;;;21.00;19.75;;;;;10.16;99.39;99639.19;4956103;28;10792;-69
2023/10/26 03:53:33;;;;;;;;;22.25;20.00;;;;;10.14;99.66;99640.47;4973133;28;10654;-70
2023/10/26 03:56:01;;;;;;;;;26.25;23.50;;;;;10.14;99.78;99637.78;4955630;28;10988;-69
2023/10/26 03:58:28;;;;;;;;;21.75;19.00;;;;;10.11;99.77;99643.59;4955690;28;11539;-70
2023/10/26 04:00:56;;;;;;;;;22.75;19.25;;;;;10.11;99.35;99646.28;4956022;28;10727;-70
2023/10/26 04:03:23;;;;;;;;;26.75;21.00;;;;;10.10;99.54;99642.78;4973218;28;10614;-70
2023/10/26 04:05:50;;;;;;;;;23.25;21.25;;;;;10.10;99.68;99648.16;4972853;28;10745;-70
2023/10/26 04:08:16;;;;;;;;;21.75;20.25;;;;;10.10;99.59;99642.78;5020424;22;10722;-66
2023/10/26 04:10:42;;;;;;;;;23.50;21.50;;;;;10.10;99.71;99650.03;5031598;28;10869;-66
2023/10/26 04:13:09;;;;;;;;;26.00;19.00;;;;;10.10;99.34;99650.03;5013624;28;10752;-66
2023/10/26 04:15:36;;;;;;;;;23.25;22.50;;;;;10.09;99.29;99645.69;5031458;28;11140;-66
2023/10/26 04:18:05;;;;;;;;;25.25;19.75;;;;;10.07;99.31;99647.75;5008921;28;10875;-66
2023/10/26 04:20:32;;;;;;;;;21.75;19.75;;;;;10.05;99.31;99645.31;5011576;28;10895;-66
2023/10/26 04:22:58;;;;;;;;;22.50;19.75;;;;;10.07;99.47;99647.75;5011608;28;11037;-66
2023/10/26 04:25:28;;;;;;;;;28.25;22.50;;;;;10.09;99.20;99648.38;5011300;28;10959;-66
2023/10/26 04:28:15;;;;;;;;;23.50;17.75;;;;;10.08;99.18;99644.84;5011171;28;11022;-66
2023/10/26 04:30:48;;;;;;;;;23.00;19.75;;;;;10.08;99.08;99644.03;5011330;28;10803;-66
2023/10/26 04:33:17;;;;;;;;;21.25;20.75;;;;;10.06;99.16;99648.81;5011242;28;11513;-66
2023/10/26 04:35:45;;;;;;;;;19.25;19.25;;;;;10.03;98.93;99644.69;5011234;28;10896;-66
2023/10/26 04:38:12;;;;;;;;;17.50;16.25;;;;;10.00;99.19;99637.06;5010842;28;10821;-66
2023/10/26 04:40:40;;;;;;;;;22.00;17.25;;;;;10.00;99.32;99631.69;5011085;28;10743;-66
2023/10/26 04:43:08;;;;;;;;;26.25;25.25;;;;;10.00;99.02;99626.31;4993463;28;10816;-67
2023/10/26 04:45:35;;;;;;;;;25.50;21.25;;;;;9.95;99.03;99625.31;4993165;28;10741;-66
2023/10/26 04:48:02;;;;;;;;;20.75;19.75;;;;;9.93;99.10;99625.56;5010790;28;10775;-66
2023/10/26 04:50:32;;;;;;;;;20.25;20.25;;;;;9.92;98.66;99621.19;5010912;28;10747;-66
2023/10/26 04:52:59;;;;;;;;;25.50;20.75;;;;;9.89;98.95;99617.09;5011118;28;10684;-66
2023/10/26 04:55:33;;;;;;;;;27.75;23.50;;;;;9.89;98.92;99616.28;5010990;28;10825;-66
2023/10/26 04:58:01;;;;;;;;;24.25;20.25;;;;;9.89;99.16;99616.28;5010632;28;10760;-66
2023/10/26 05:00:28;;;;;;;;;21.00;18.25;;;;;9.88;98.84;99615.47;5010705;28;10718;-66
2023/10/26 05:02:55;;;;;;;;;23.50;21.00;;;;;9.89;99.05;99618.97;5010691;28;10738;-66
2023/10/26 05:05:22;;;;;;;;;21.75;18.75;;;;;9.89;98.91;99627.03;5010922;28;10813;-66
2023/10/26 05:07:48;;;;;;;;;21.75;19.50;;;;;9.89;98.80;99624.34;5010232;28;11023;-66
2023/10/26 05:10:14;;;;;;;;;21.25;18.25;;;;;9.90;99.10;99620.63;5010758;28;10824;-66
2023/10/26 05:12:41;;;;;;;;;19.75;16.25;;;;;9.90;99.10;99618.75;5010538;28;10725;-66
2023/10/26 05:15:08;;;;;;;;;23.00;17.25;;;;;9.91;98.96;99627.63;5010648;28;10719;-65
2023/10/26 05:17:38;;;;;;;;;21.75;21.00;;;;;9.90;98.67;99623.31;4992544;28;10750;-66
2023/10/26 05:20:05;;;;;;;;;20.25;19.75;;;;;9.87;98.82;99615.66;4993245;28;11516;-66
2023/10/26 05:22:32;;;;;;;;;21.50;17.50;;;;;9.87;98.04;99626.41;4993028;28;10806;-66
2023/10/26 05:25:00;;;;;;;;;19.50;17.25;;;;;9.83;98.89;99623.34;5010049;28;11455;-67
2023/10/26 05:27:27;;;;;;;;;23.00;18.75;;;;;9.86;99.22;99620.22;5010034;28;10807;-66
2023/10/26 05:29:53;;;;;;;;;16.25;15.00;;;;;9.93;99.18;99619.38;4992661;28;10753;-66
2023/10/26 05:32:21;;;;;;;;;21.50;18.00;;;;;9.95;98.95;99618.09;5010418;28;10739;-66
2023/10/26 05:34:47;;;;;;;;;22.00;18.50;;;;;9.96;98.83;99618.91;4992983;28;10833;-67
2023/10/26 05:37:14;;;;;;;;;22.00;19.75;;;;;9.96;98.99;99619.72;5009886;28;10910;-66
2023/10/26 05:39:40;;;;;;;;;26.25;21.00;;;;;9.96;99.35;99613.53;4992438;28;10740;-67
2023/10/26 05:42:07;;;;;;;;;18.25;17.25;;;;;9.96;99.26;99606.28;5010000;28;10810;-66
2023/10/26 05:44:33;;;;;;;;;22.50;21.75;;;;;9.98;99.14;99600.69;4992516;28;10873;-66
2023/10/26 05:47:00;;;;;;;;;22.25;16.25;;;;;10.00;99.15;99606.66;4991968;28;10809;-66
2023/10/26 05:49:27;;;;;;;;;22.50;20.75;;;;;9.99;99.39;99605.84;5009840;28;10830;-66
2023/10/26 05:51:53;;;;;;;;;21.50;16.00;;;;;10.00;99.75;99615.53;5009919;28;10944;-66
2023/10/26 05:54:20;;;;;;;;;20.75;20.25;;;;;10.01;99.50;99616.41;5010237;28;10708;-66
2023/10/26 05:56:46;;;;;;;;;16.50;16.00;;;;;10.02;99.17;99615.34;5009532;28;10730;-66
2023/10/26 05:59:13;;;;;;;;;22.00;16.25;;;;;10.00;99.36;99612.03;5009881;28;10670;-66
2023/10/26 06:01:39;;;;;;;;;19.25;17.50;;;;;10.02;99.64;99608.09;5010181;28;10821;-66
2023/10/26 06:04:06;;;;;;;;;20.00;18.00;;;;;10.04;99.53;99610.56;5009662;28;10731;-66
2023/10/26 06:06:32;;;;;;;;;20.75;17.50;;;;;10.04;99.48;99610.56;5009382;28;10805;-66
2023/10/26 06:08:59;;;;;;;;;25.50;22.50;;;;;10.03;99.78;99611.59;5009421;28;10853;-66
2023/10/26 06:11:26;;;;;;;;;18.75;17.00;;;;;9.99;99.48;99607.72;5009907;28;10895;-66
2023/10/26 06:13:52;;;;;;;;;20.00;16.00;;;;;9.99;100.00;99607.72;5009613;28;11471;-66
2023/10/26 06:16:20;;;;;;;;;20.50;20.00;;;;;9.98;99.70;99600.69;5009503;28;10829;-66
2023/10/26 06:18:46;;;;;;;;;25.25;20.25;;;;;9.98;99.76;99601.53;5009439;28;10742;-66
2023/10/26 06:21:13;;;;;;;;;21.00;20.75;;;;;9.99;99.98;99605.03;5009505;28;10635;-66
2023/10/26 06:23:39;;;;;;;;;20.75;20.00;;;;;9.96;99.75;99608.16;5009442;28;10564;-66
2023/10/26 06:26:06;;;;;;;;;17.75;17.25;;;;;9.97;100.00;99616.00;4991433;28;10761;-67
2023/10/26 06:28:32;;;;;;;;;23.75;21.00;;;;;9.99;100.00;99618.47;5009405;28;10568;-66
2023/10/26 06:31:10;;;;;;;;;24.75;24.75;;;;;9.95;100.00;99615.41;5009189;28;10812;-66
2023/10/26 06:33:37;;;;;;;;;21.25;19.75;;;;;9.94;99.86;99619.13;5009436;28;10747;-66
2023/10/26 06:36:04;;;;;;;;;21.25;21.25;;;;;9.86;99.83;99620.22;5008941;28;11478;-66
2023/10/26 06:38:30;;;;;;;;;20.25;19.75;;;;;9.86;100.00;99622.91;5009289;28;10936;-66
2023/10/26 06:40:57;;;;;;;;;17.00;16.25;;;;;9.89;100.00;99621.66;5011040;28;10875;-67
2023/10/26 06:43:24;;;;;;;;;19.25;19.25;;;;;9.89;100.00;99621.66;5013378;28;10785;-66
2023/10/26 06:45:50;;;;;;;;;20.50;18.50;;;;;9.86;100.00;99619.41;5013265;28;10869;-66
2023/10/26 06:48:20;;;;;;;;;25.00;23.00;;;;;9.85;100.00;99626.66;5012958;28;10730;-66
2023/10/26 06:50:47;;;;;;;;;23.75;20.25;;;;;9.84;100.00;99626.84;5013363;28;10827;-66
2023/10/26 06:53:14;;;;;;;;;22.50;18.50;;;;;9.84;100.00;99625.00;5013207;28;10912;-66
2023/10/26 06:55:42;;;;;;;;;19.50;19.50;;;;;9.84;100.00;99618.78;5013152;28;10664;-67
2023/10/26 06:58:09;;;;;;;;;24.25;20.00;;;;;9.83;100.00;99623.34;5012843;28;10654;-66
2023/10/26 07:00:35;;;;;;;;;21.25;18.50;;;;;9.84;100.00;99621.47;5013175;28;10733;-66
2023/10/26 07:03:02;;;;;;;;;17.00;16.50;;;;;9.85;100.00;99612.41;5012904;28;10683;-66
2023/10/26 07:05:29;;;;;;;;;21.75;17.00;;;;;9.87;100.00;99623.72;4995597;28;11372;-66
2023/10/26 07:07:59;;;;;;;;;21.00;19.75;;;;;9.86;100.00;99622.91;5012463;28;10554;-67
2023/10/26 07:10:26;;;;;;;;;22.50;21.00;;;;;9.83;100.00;99626.03;5011538;28;10812;-66
2023/10/26 07:12:53;;;;;;;;;22.50;20.00;;;;;9.82;100.00;99621.72;5012981;28;10995;-66
2023/10/26 07:15:19;;;;;;;;;19.00;17.75;;;;;9.79;100.00;99622.13;4995469;28;10863;-66
2023/10/26 07:17:46;;;;;;;;;18.75;17.00;;;;;9.79;99.98;99619.44;5012453;28;10630;-66
2023/10/26 07:20:12;;;;;;;;;12.50;11.25;;;;;9.79;100.00;99619.44;5012669;28;10663;-66
2023/10/26 07:22:40;;;;;;;;;17.25;15.50;;;;;9.79;100.00;99619.44;5012729;28;10559;-66
2023/10/26 07:25:07;;;;;;;;;20.00;16.25;;;;;9.77;100.00;99620.72;5012378;28;10707;-66
2023/10/26 07:27:33;;;;;;;;;17.25;15.25;;;;;9.76;100.00;99611.00;5012216;28;10746;-66
2023/10/26 07:30:01;;;;;;;;;15.00;15.00;;;;;9.73;99.68;99625.72;5012136;28;10710;-66
2023/10/26 07:32:28;;;;;;;;;17.75;14.75;;;;;9.69;100.00;99631.75;5012975;28;10666;-66
2023/10/26 07:34:54;;;;;;;;;14.25;14.00;;;;;9.68;100.00;99632.78;5012380;28;10764;-66
2023/10/26 07:37:21;;;;;;;;;16.75;13.50;;;;;9.71;100.00;99632.34;4994413;28;10517;-67
2023/10/26 07:39:48;;;;;;;;;15.50;13.50;;;;;9.72;100.00;99624.03;5012405;28;11476;-67
2023/10/26 07:42:15;;;;;;;;;19.75;14.50;;;;;9.71;99.97;99621.59;5012274;28;10580;-66
2023/10/26 07:44:42;;;;;;;;;19.00;15.50;;;;;9.70;99.99;99626.16;4994694;28;10486;-66
2023/10/26 07:47:10;;;;;;;;;17.25;15.75;;;;;9.69;100.00;99621.00;4994338;28;10669;-67
2023/10/26 07:49:36;;;;;;;;;16.25;15.75;;;;;9.72;100.00;99618.69;5012079;28;10506;-66
2023/10/26 07:52:03;;;;;;;;;18.00;16.00;;;;;9.74;100.00;99621.16;5012132;28;10651;-66
2023/10/26 07:54:29;;;;;;;;;22.25;16.75;;;;;9.73;99.99;99630.28;5012515;28;11415;-66
2023/10/26 07:56:56;;;;;;;;;19.25;18.25;;;;;9.70;100.00;99628.84;5011969;28;10678;-66
2023/10/26 07:59:23;;;;;;;;;17.75;15.25;;;;;9.72;100.00;99634.78;5012059;28;10575;-66
2023/10/26 08:01:49;;;;;;;;;18.50;15.75;;;;;9.74;100.00;99640.78;5012149;28;11274;-66
2023/10/26 08:04:16;;;;;;;;;20.25;16.75;;;;;9.76;100.00;99641.38;4994523;28;10806;-66
2023/10/26 08:06:43;;;;;;;;;18.00;17.25;;;;;9.74;99.92;99646.16;5011598;28;10678;-66
2023/10/26 08:09:09;;;;;;;;;17.50;16.00;;;;;9.72;99.68;99640.16;5011711;28;10993;-66
2023/10/26 08:11:36;;;;;;;;;17.75;15.50;;;;;9.72;100.00;99642.84;5011738;28;10733;-66
2023/10/26 08:14:02;;;;;;;;;18.25;16.25;;;;;9.75;99.86;99642.44;5011590;28;10503;-66
2023/10/26 08:16:49;;;;;;;;;22.50;19.25;;;;;9.70;99.86;99636.06;5011675;28;10641;-66
2023/10/26 08:19:16;;;;;;;;;18.50;16.00;;;;;9.72;99.56;99639.34;5011572;28;10584;-66
2023/10/26 08:21:43;;;;;;;;;19.75;13.00;;;;;9.71;100.00;99641.22;5011488;28;10763;-66
2023/10/26 08:24:09;;;;;;;;;22.00;18.50;;;;;9.70;99.74;99649.50;5011507;28;11298;-67
2023/10/26 08:26:36;;;;;;;;;20.25;15.25;;;;;9.70;99.82;99649.50;5011382;28;10839;-66
2023/10/26 08:29:02;;;;;;;;;18.75;17.00;;;;;9.69;99.95;99643.31;5011347;28;11561;-66
2023/10/26 08:31:41;;;;;;;;;16.25;14.75;;;;;9.73;99.87;99646.41;4993801;28;10606;-66
2023/10/26 08:34:11;;;;;;;;;17.75;13.25;;;;;9.73;99.18;99641.84;5011575;28;10727;-66
2023/10/26 08:36:37;;;;;;;;;18.50;16.00;;;;;9.71;100.00;99643.09;5011019;28;11472;-66
2023/10/26 08:39:09;;;;;;;;;13.00;11.75;;;;;9.72;100.00;99648.22;5011032;28;10660;-66
2023/10/26 08:41:36;;;;;;;;;12.75;12.50;;;;;9.76;100.00;99649.44;5011141;28;10502;-66
2023/10/26 08:44:03;;;;;;;;;15.75;14.25;;;;;9.81;100.00;99643.44;5011345;28;10554;-66
2023/10/26 08:46:30;;;;;;;;;16.50;12.25;;;;;9.82;99.74;99642.38;5010586;28;10802;-67
2023/10/26 08:48:58;;;;;;;;;16.00;12.25;;;;;9.84;99.78;99648.34;5011263;28;10921;-66
2023/10/26 08:51:26;;;;;;;;;12.75;10.75;;;;;9.86;99.83;99647.09;5010907;28;10563;-66
2023/10/26 08:53:53;;;;;;;;;15.00;13.00;;;;;9.85;99.79;99637.41;4993438;28;10580;-66
2023/10/26 08:56:23;;;;;;;;;15.25;13.25;;;;;9.82;99.42;99637.00;5010557;28;10717;-66
2023/10/26 08:58:54;;;;;;;;;11.75;10.50;;;;;9.83;99.96;99649.41;5010881;28;10702;-66
2023/10/26 09:01:21;;;;;;;;;17.00;16.00;;;;;9.83;99.70;99658.28;5010769;28;10604;-66
2023/10/26 09:03:47;;;;;;;;;13.75;13.00;;;;;9.82;99.63;99667.41;4992544;28;10726;-67
2023/10/26 09:06:14;;;;;;;;;16.75;16.25;;;;;9.82;99.84;99667.41;4992686;28;10486;-66
2023/10/26 09:08:41;;;;;;;;;15.50;14.00;;;;;9.84;99.18;99654.56;5010474;28;10857;-66
2023/10/26 09:11:22;;;;;;;;;11.75;11.75;;;;;9.79;99.70;99664.31;5010601;28;11253;-66
2023/10/26 09:13:50;;;;;;;;;10.00;8.50;;;;;9.79;100.00;99665.13;5010724;28;10829;-66
2023/10/26 09:16:16;;;;;;;;;16.75;15.00;;;;;9.79;99.63;99662.44;5009930;28;10637;-67
2023/10/26 09:18:50;;;;;;;;;17.00;12.25;;;;;9.80;99.92;99661.44;5010807;28;10503;-66
2023/10/26 09:21:17;;;;;;;;;16.00;13.25;;;;;9.82;100.00;99661.19;5010346;28;10690;-67
2023/10/26 09:23:45;;;;;;;;;17.50;17.50;;;;;9.87;99.85;99662.19;5010503;28;10515;-66
2023/10/26 09:26:11;;;;;;;;;20.00;17.00;;;;;9.82;99.87;99655.81;5010050;28;10714;-67
2023/10/26 09:28:48;;;;;;;;;17.50;15.25;;;;;9.81;100.00;99660.38;5010176;28;10561;-66
2023/10/26 09:31:15;;;;;;;;;15.75;12.75;;;;;9.82;100.00;99653.13;5008929;28;10658;-66
2023/10/26 09:33:41;;;;;;;;;16.50;16.50;;;;;9.84;100.00;99651.91;5010227;28;10508;-66
2023/10/26 09:36:12;;;;;;;;;17.00;12.00;;;;;9.89;100.00;99659.28;5009894;28;10656;-66
2023/10/26 09:38:39;;;;;;;;;26.50;23.50;;;;;9.84;100.00;99649.22;4992496;28;10562;-67
2023/10/26 09:41:08;;;;;;;;;17.50;17.50;;;;;9.75;99.85;99639.75;5010195;28;10729;-66
2023/10/26 09:43:35;;;;;;;;;20.50;16.50;;;;;9.69;99.71;99637.13;5010141;28;10553;-66
2023/10/26 09:46:02;;;;;;;;;14.75;11.75;;;;;9.66;100.00;99641.06;5009654;28;10615;-66
2023/10/26 09:48:29;;;;;;;;;15.75;14.25;;;;;9.70;100.00;99630.69;4992422;28;10590;-66
2023/10/26 09:51:00;;;;;;;;;19.50;17.75;;;;;9.69;100.00;99640.63;5009858;28;10775;-66
2023/10/26 09:53:35;;;;;;;;;14.50;12.00;;;;;9.72;100.00;99634.78;4992409;28;10688;-66
2023/10/26 09:56:04;;;;;;;;;11.50;10.25;;;;;9.78;100.00;99638.50;5009858;28;10605;-66
2023/10/26 09:58:36;;;;;;;;;13.25;13.00;;;;;9.82;100.00;99639.69;5009738;28;10576;-66
2023/10/26 10:01:39;;;;;;;;;15.00;13.25;;;;;9.82;100.00;99639.69;5009827;28;10502;-67
2023/10/26 10:04:10;;;;;;;;;14.00;13.50;;;;;9.73;100.00;99628.41;5009712;28;10573;-66
2023/10/26 10:06:51;;;;;;;;;20.50;16.00;;;;;9.74;100.00;99629.22;5009628;28;10574;-66
2023/10/26 10:09:23;;;;;;;;;17.50;17.50;;;;;9.72;100.00;99628.59;5010005;28;10482;-67
2023/10/26 10:12:05;;;;;;;;;15.75;15.25;;;;;9.76;100.00;99629.81;5009867;28;11437;-67
2023/10/26 10:14:47;;;;;;;;;19.50;17.00;;;;;9.77;100.00;99628.78;5009055;28;10565;-67
2023/10/26 10:17:15;;;;;;;;;24.25;19.75;;;;;9.73;100.00;99624.91;5009294;28;10493;-67
2023/10/26 10:19:46;;;;;;;;;17.75;14.75;;;;;9.73;100.00;99617.66;5009682;28;10755;-67
2023/10/26 10:22:34;;;;;;;;;16.00;16.00;;;;;9.76;100.00;99614.50;5009504;28;10775;-67
2023/10/26 10:25:01;;;;;;;;;18.00;17.50;;;;;9.80;100.00;99606.84;4991985;28;11545;-67
2023/10/26 10:27:31;;;;;;;;;19.25;18.50;;;;;9.84;100.00;99614.25;5009375;28;10469;-67
2023/10/26 10:30:03;;;;;;;;;18.75;16.50;;;;;9.83;100.00;99617.16;5009741;28;10694;-67
2023/10/26 10:32:45;;;;;;;;;21.75;19.50;;;;;9.87;100.00;99608.44;5009706;28;11552;-67
2023/10/26 10:35:12;;;;;;;;;16.00;16.00;;;;;9.89;100.00;99606.34;5009506;28;10662;-67
2023/10/26 10:38:15;;;;;;;;;21.75;18.75;;;;;9.89;100.00;99614.41;5009054;28;10483;-67
2023/10/26 10:40:53;;;;;;;;;19.25;18.75;;;;;9.89;100.00;99613.59;5009464;28;10570;-67
2023/10/26 10:43:37;;;;;;;;;16.00;16.00;;;;;9.87;100.00;99604.91;5009472;28;11411;-67
2023/10/26 10:46:21;;;;;;;;;18.50;16.00;;;;;9.95;100.00;99610.03;4991560;28;10644;-67
2023/10/26 10:49:05;;;;;;;;;20.50;18.75;;;;;9.96;100.00;99608.16;5009420;28;10731;-67
2023/10/26 10:51:37;;;;;;;;;18.00;18.00;;;;;10.00;100.00;99612.03;4992112;28;10781;-67
2023/10/26 10:54:06;;;;;;;;;22.75;16.50;;;;;10.09;100.00;99613.44;5009298;28;11006;-67
2023/10/26 10:56:52;;;;;;;;;13.00;12.50;;;;;10.21;100.00;99610.81;5009052;28;10752;-67
2023/10/26 10:59:21;;;;;;;;;12.00;12.00;;;;;10.29;100.00;99600.63;5009078;28;10680;-67
2023/10/26 11:02:09;;;;;;;;;17.00;17.00;;;;;10.42;100.00;99596.16;5009280;28;10419;-67
2023/10/26 11:04:55;;;;;;;;;16.50;16.50;;;;;10.43;100.00;99587.84;5009047;28;10427;-67
2023/10/26 11:07:38;;;;;;;;;22.75;20.25;;;;;10.44;100.00;99586.00;5008494;28;10623;-67
2023/10/26 11:10:05;;;;;;;;;14.25;14.00;;;;;10.51;100.00;99589.44;5009228;28;10674;-67
2023/10/26 11:12:32;;;;;;;;;21.50;19.00;;;;;10.52;100.00;99580.31;5009431;28;10643;-67
2023/10/26 11:14:58;;;;;;;;;12.00;11.00;;;;;10.59;100.00;99581.06;5008937;28;10679;-67
2023/10/26 11:17:26;;;;;;;;;26.25;22.00;;;;;10.60;99.77;99582.69;5008584;28;11057;-67
2023/10/26 11:19:53;;;;;;;;;16.00;15.25;;;;;10.61;99.67;99578.94;5008943;28;10575;-67
2023/10/26 11:22:21;;;;;;;;;24.00;23.25;;;;;10.70;99.24;99580.31;5009157;28;10360;-67